createdAt,value
2018-04-04T00:00:54.669Z,0
2018-04-04T00:02:03.505Z,0
2018-04-04T00:03:12.343Z,0
2018-04-04T00:04:21.179Z,0
2018-04-04T00:05:30.013Z,0
2018-04-04T00:06:38.896Z,0
2018-04-04T00:07:47.731Z,0
2018-04-04T00:08:56.855Z,0
2018-04-04T00:10:05.695Z,0
2018-04-04T00:11:14.523Z,0
2018-04-04T00:12:23.634Z,0
2018-04-04T00:13:32.471Z,0
2018-04-04T00:14:41.303Z,0
2018-04-04T00:15:50.414Z,0
2018-04-04T00:16:59.249Z,0
2018-04-04T00:18:08.182Z,0
2018-04-04T00:19:17.015Z,0
2018-04-04T00:20:25.848Z,0
2018-04-04T00:21:34.690Z,0
2018-04-04T00:22:43.798Z,0
2018-04-04T00:23:52.733Z,0
2018-04-04T00:25:01.569Z,0
2018-04-04T00:26:10.403Z,0
2018-04-04T00:27:19.242Z,0
2018-04-04T00:28:28.348Z,0
2018-04-04T00:29:37.230Z,0
2018-04-04T00:30:46.067Z,0
2018-04-04T00:31:54.902Z,0
2018-04-04T00:33:03.745Z,0
2018-04-04T00:34:12.580Z,0
2018-04-04T00:35:21.793Z,0
2018-04-04T00:36:30.626Z,0
2018-04-04T00:37:39.461Z,0
2018-04-04T00:38:48.296Z,0
2018-04-04T00:39:57.134Z,0
2018-04-04T00:41:06.076Z,0
2018-04-04T00:42:15.185Z,0
2018-04-04T00:43:24.293Z,0
2018-04-04T00:44:33.207Z,0
2018-04-04T00:45:41.967Z,0
2018-04-04T00:46:50.803Z,0
2018-04-04T00:47:59.637Z,0
2018-04-04T00:49:08.473Z,0
2018-04-04T00:50:17.863Z,0
2018-04-04T00:51:26.697Z,0
2018-04-04T00:52:35.530Z,0
2018-04-04T00:53:44.363Z,0
2018-04-04T00:54:53.195Z,0
2018-04-04T00:56:02.028Z,0
2018-04-04T00:57:10.867Z,0
2018-04-04T00:58:19.750Z,0
2018-04-04T00:59:28.589Z,0
2018-04-04T01:00:37.421Z,0
2018-04-04T01:01:46.254Z,0
2018-04-04T01:02:55.107Z,0
2018-04-04T01:04:04.354Z,0
2018-04-04T01:05:13.200Z,0
2018-04-04T01:06:22.026Z,0
2018-04-04T01:07:30.882Z,0
2018-04-04T01:08:39.713Z,0
2018-04-04T01:09:48.649Z,0
2018-04-04T01:10:57.483Z,0
2018-04-04T01:12:06.324Z,0
2018-04-04T01:13:15.159Z,0
2018-04-04T01:14:23.993Z,0
2018-04-04T01:15:32.829Z,0
2018-04-04T01:16:41.763Z,0
2018-04-04T01:17:50.597Z,0
2018-04-04T01:18:59.434Z,0
2018-04-04T01:20:08.276Z,0
2018-04-04T01:21:17.205Z,0
2018-04-04T01:22:26.041Z,0
2018-04-04T01:23:34.876Z,0
2018-04-04T01:24:43.988Z,0
2018-04-04T01:25:53.098Z,0
2018-04-04T01:27:02.035Z,0
2018-04-04T01:28:10.866Z,0
2018-04-04T01:29:19.703Z,0
2018-04-04T01:30:28.539Z,0
2018-04-04T01:31:37.381Z,0
2018-04-04T01:32:46.364Z,0
2018-04-04T01:33:55.471Z,0
2018-04-04T01:35:04.305Z,0
2018-04-04T01:36:13.138Z,0
2018-04-04T01:37:21.976Z,0
2018-04-04T01:38:30.911Z,0
2018-04-04T01:39:39.745Z,0
2018-04-04T01:40:48.581Z,0
2018-04-04T01:41:57.412Z,0
2018-04-04T01:43:06.531Z,0
2018-04-04T01:44:15.463Z,0
2018-04-04T01:45:24.299Z,0
2018-04-04T01:46:33.133Z,0
2018-04-04T01:47:41.975Z,0
2018-04-04T01:48:50.810Z,0
2018-04-04T01:49:59.896Z,0
2018-04-04T01:51:08.731Z,0
2018-04-04T01:52:17.569Z,0
2018-04-04T01:53:26.404Z,0
2018-04-04T01:54:35.239Z,0
2018-04-04T01:55:44.598Z,0
2018-04-04T01:56:53.433Z,0
2018-04-04T01:58:02.264Z,0
2018-04-04T01:59:11.099Z,0
2018-04-04T02:00:19.933Z,0
2018-04-04T02:01:28.918Z,0
2018-04-04T02:02:37.750Z,0
2018-04-04T02:03:46.585Z,0
2018-04-04T02:04:55.420Z,0
2018-04-04T02:06:04.254Z,0
2018-04-04T02:07:13.340Z,0
2018-04-04T02:08:22.178Z,0
2018-04-04T02:09:31.007Z,0
2018-04-04T02:10:39.840Z,0
2018-04-04T02:11:48.677Z,0
2018-04-04T02:12:57.810Z,0
2018-04-04T02:14:06.644Z,0
2018-04-04T02:15:15.478Z,0
2018-04-04T02:16:24.313Z,0
2018-04-04T02:17:33.147Z,0
2018-04-04T02:18:41.980Z,0
2018-04-04T02:19:50.813Z,0
2018-04-04T02:20:59.647Z,0
2018-04-04T02:22:08.484Z,0
2018-04-04T02:23:17.317Z,0
2018-04-04T02:24:26.527Z,0
2018-04-04T02:25:35.361Z,0
2018-04-04T02:26:44.199Z,0
2018-04-04T02:27:53.036Z,0
2018-04-04T02:29:02.152Z,0
2018-04-04T02:30:11.090Z,0
2018-04-04T02:31:19.939Z,0
2018-04-04T02:32:29.052Z,0
2018-04-04T02:33:38.167Z,0
2018-04-04T02:34:47.282Z,0
2018-04-04T02:35:56.116Z,0
2018-04-04T02:37:04.950Z,0
2018-04-04T02:38:14.056Z,0
2018-04-04T02:39:22.890Z,0
2018-04-04T02:40:31.726Z,0
2018-04-04T02:41:40.859Z,0
2018-04-04T02:42:49.693Z,0
2018-04-04T02:43:58.526Z,0
2018-04-04T02:45:07.359Z,0
2018-04-04T02:46:16.473Z,0
2018-04-04T02:47:25.360Z,0
2018-04-04T02:48:34.202Z,0
2018-04-04T02:49:43.031Z,0
2018-04-04T02:50:51.865Z,0
2018-04-04T02:52:00.699Z,0
2018-04-04T02:53:09.817Z,0
2018-04-04T02:54:18.924Z,0
2018-04-04T02:55:27.758Z,0
2018-04-04T02:56:36.594Z,0
2018-04-04T02:57:45.427Z,0
2018-04-04T02:58:54.362Z,0
2018-04-04T03:00:03.211Z,0
2018-04-04T03:01:12.029Z,0
2018-04-04T03:02:20.865Z,0
2018-04-04T03:03:29.973Z,0
2018-04-04T03:04:38.955Z,0
2018-04-04T03:05:47.788Z,0
2018-04-04T03:06:56.903Z,0
2018-04-04T03:08:06.010Z,0
2018-04-04T03:09:14.842Z,0
2018-04-04T03:10:23.930Z,0
2018-04-04T03:11:33.041Z,0
2018-04-04T03:12:42.145Z,0
2018-04-04T03:13:50.979Z,0
2018-04-04T03:15:00.100Z,0
2018-04-04T03:16:08.983Z,0
2018-04-04T03:17:17.818Z,0
2018-04-04T03:18:26.931Z,0
2018-04-04T03:19:35.764Z,0
2018-04-04T03:20:44.596Z,0
2018-04-04T03:21:53.581Z,0
2018-04-04T03:23:02.414Z,0
2018-04-04T03:24:11.248Z,0
2018-04-04T03:25:20.081Z,0
2018-04-04T03:26:28.919Z,0
2018-04-04T03:27:37.753Z,0
2018-04-04T03:28:46.864Z,0
2018-04-04T03:29:55.706Z,0
2018-04-04T03:31:04.536Z,0
2018-04-04T03:32:13.668Z,0
2018-04-04T03:33:22.603Z,0
2018-04-04T03:34:31.438Z,0
2018-04-04T03:35:40.271Z,0
2018-04-04T03:36:49.107Z,0
2018-04-04T03:37:57.940Z,0
2018-04-04T03:39:06.928Z,0
2018-04-04T03:40:15.760Z,0
2018-04-04T03:41:24.594Z,0
2018-04-04T03:42:33.428Z,0
2018-04-04T03:43:42.268Z,0
2018-04-04T03:44:51.485Z,0
2018-04-04T03:46:00.594Z,0
2018-04-04T03:47:09.427Z,0
2018-04-04T03:48:18.260Z,0
2018-04-04T03:49:27.092Z,0
2018-04-04T03:50:36.078Z,0
2018-04-04T03:51:44.912Z,0
2018-04-04T03:52:53.745Z,0
2018-04-04T03:54:02.851Z,0
2018-04-04T03:55:11.684Z,0
2018-04-04T03:56:20.520Z,0
2018-04-04T03:57:29.354Z,0
2018-04-04T03:58:38.188Z,0
2018-04-04T03:59:47.022Z,0
2018-04-04T04:00:55.855Z,0
2018-04-04T04:02:04.991Z,0
2018-04-04T04:03:13.824Z,0
2018-04-04T04:04:22.659Z,0
2018-04-04T04:05:31.493Z,0
2018-04-04T04:06:40.326Z,0
2018-04-04T04:07:49.159Z,0
2018-04-04T04:08:57.994Z,0
2018-04-04T04:10:07.157Z,0
2018-04-04T04:11:16.221Z,0
2018-04-04T04:12:25.053Z,0
2018-04-04T04:13:34.189Z,0
2018-04-04T04:14:43.026Z,0
2018-04-04T04:15:51.856Z,0
2018-04-04T04:17:00.694Z,0
2018-04-04T04:18:09.566Z,0
2018-04-04T04:19:18.360Z,0
2018-04-04T04:20:27.192Z,0
2018-04-04T04:21:36.024Z,0
2018-04-04T04:22:44.858Z,0
2018-04-04T04:23:53.972Z,0
2018-04-04T04:25:02.903Z,0
2018-04-04T04:26:11.739Z,4
2018-04-04T04:27:20.568Z,4
2018-04-04T04:28:29.682Z,0
2018-04-04T04:29:38.513Z,4
2018-04-04T04:30:47.494Z,4
2018-04-04T04:31:56.327Z,4
2018-04-04T04:33:05.160Z,8
2018-04-04T04:34:13.994Z,8
2018-04-04T04:35:22.828Z,8
2018-04-04T04:36:31.934Z,8
2018-04-04T04:37:40.767Z,12
2018-04-04T04:38:49.603Z,16
2018-04-04T04:39:58.435Z,16
2018-04-04T04:41:07.268Z,20
2018-04-04T04:42:16.252Z,28
2018-04-04T04:43:25.104Z,32
2018-04-04T04:44:33.935Z,36
2018-04-04T04:45:42.763Z,40
2018-04-04T04:46:51.589Z,48
2018-04-04T04:48:00.427Z,56
2018-04-04T04:49:09.256Z,64
2018-04-04T04:50:18.090Z,72
2018-04-04T04:51:27.199Z,84
2018-04-04T04:52:36.032Z,92
2018-04-04T04:53:44.964Z,112
2018-04-04T04:54:53.796Z,128
2018-04-04T04:56:02.630Z,136
2018-04-04T04:57:11.465Z,144
2018-04-04T04:58:20.296Z,156
2018-04-04T04:59:29.430Z,164
2018-04-04T05:00:38.263Z,176
2018-04-04T05:01:47.097Z,188
2018-04-04T05:02:55.932Z,204
2018-04-04T05:04:04.766Z,216
2018-04-04T05:05:13.657Z,228
2018-04-04T05:06:22.487Z,244
2018-04-04T05:07:31.320Z,260
2018-04-04T05:08:40.152Z,276
2018-04-04T05:09:48.986Z,316
2018-04-04T05:10:57.969Z,352
2018-04-04T05:12:07.101Z,388
2018-04-04T05:13:15.935Z,412
2018-04-04T05:14:24.771Z,444
2018-04-04T05:15:33.594Z,484
2018-04-04T05:16:42.433Z,508
2018-04-04T05:17:51.542Z,512
2018-04-04T05:19:00.375Z,520
2018-04-04T05:20:10.085Z,576
2018-04-04T05:21:18.918Z,672
2018-04-04T05:22:27.828Z,808
2018-04-04T05:23:37.218Z,988
2018-04-04T05:24:46.050Z,1052
2018-04-04T05:25:54.937Z,1008
2018-04-04T05:27:04.160Z,1116
2018-04-04T05:28:13.311Z,1160
2018-04-04T05:29:22.148Z,1032
2018-04-04T05:30:30.978Z,888
2018-04-04T05:31:39.811Z,888
2018-04-04T05:32:48.696Z,936
2018-04-04T05:33:57.530Z,972
2018-04-04T05:35:06.364Z,920
2018-04-04T05:36:15.198Z,856
2018-04-04T05:37:24.598Z,844
2018-04-04T05:38:33.428Z,868
2018-04-04T05:39:42.259Z,892
2018-04-04T05:40:51.092Z,912
2018-04-04T05:41:59.932Z,900
2018-04-04T05:43:08.946Z,836
2018-04-04T05:44:18.034Z,792
2018-04-04T05:45:26.870Z,796
2018-04-04T05:46:35.700Z,808
2018-04-04T05:47:44.537Z,824
2018-04-04T05:48:53.369Z,848
2018-04-04T05:50:02.482Z,872
2018-04-04T05:51:11.589Z,896
2018-04-04T05:52:20.424Z,928
2018-04-04T05:53:29.408Z,960
2018-04-04T05:54:38.244Z,1004
2018-04-04T05:55:47.356Z,1048
2018-04-04T05:56:56.192Z,1076
2018-04-04T05:58:05.024Z,1028
2018-04-04T05:59:14.158Z,980
2018-04-04T06:00:22.967Z,984
2018-04-04T06:01:31.800Z,1016
2018-04-04T06:02:40.630Z,1044
2018-04-04T06:03:49.462Z,1044
2018-04-04T06:04:58.548Z,1020
2018-04-04T06:06:07.665Z,992
2018-04-04T06:07:16.501Z,972
2018-04-04T06:08:25.338Z,964
2018-04-04T06:09:34.171Z,940
2018-04-04T06:10:43.689Z,900
2018-04-04T06:11:52.523Z,904
2018-04-04T06:13:01.370Z,912
2018-04-04T06:14:10.188Z,952
2018-04-04T06:15:19.023Z,996
2018-04-04T06:16:28.007Z,1024
2018-04-04T06:17:36.843Z,1056
2018-04-04T06:18:45.676Z,1088
2018-04-04T06:19:54.509Z,1128
2018-04-04T06:21:03.645Z,1164
2018-04-04T06:22:12.782Z,1236
2018-04-04T06:23:21.616Z,1332
2018-04-04T06:24:30.651Z,1464
2018-04-04T06:25:40.071Z,1620
2018-04-04T06:26:48.910Z,1856
2018-04-04T06:27:57.943Z,1904
2018-04-04T06:29:06.775Z,1852
2018-04-04T06:30:15.608Z,1916
2018-04-04T06:31:24.442Z,1632
2018-04-04T06:32:33.275Z,1348
2018-04-04T06:33:42.359Z,1312
2018-04-04T06:34:51.192Z,1248
2018-04-04T06:36:00.304Z,1180
2018-04-04T06:37:09.465Z,1152
2018-04-04T06:38:18.369Z,1160
2018-04-04T06:39:27.630Z,1192
2018-04-04T06:40:36.473Z,1232
2018-04-04T06:41:45.933Z,1280
2018-04-04T06:42:54.139Z,1320
2018-04-04T06:44:03.249Z,1380
2018-04-04T06:45:12.411Z,1428
2018-04-04T06:46:21.246Z,1396
2018-04-04T06:47:30.352Z,1308
2018-04-04T06:48:39.460Z,1256
2018-04-04T06:49:48.611Z,1256
2018-04-04T06:50:57.456Z,1236
2018-04-04T06:52:06.288Z,1212
2018-04-04T06:53:15.124Z,1212
2018-04-04T06:54:24.233Z,1212
2018-04-04T06:55:33.066Z,1212
2018-04-04T06:56:42.333Z,1212
2018-04-04T06:57:51.168Z,1212
2018-04-04T06:59:00.001Z,1196
2018-04-04T07:00:08.839Z,1188
2018-04-04T07:01:17.667Z,1192
2018-04-04T07:02:26.924Z,1196
2018-04-04T07:03:35.758Z,1204
2018-04-04T07:04:44.593Z,1196
2018-04-04T07:05:53.711Z,1192
2018-04-04T07:07:02.545Z,1192
2018-04-04T07:08:11.477Z,1192
2018-04-04T07:09:20.312Z,1172
2018-04-04T07:10:29.144Z,1212
2018-04-04T07:11:37.977Z,1212
2018-04-04T07:12:46.811Z,1200
2018-04-04T07:13:55.696Z,1200
2018-04-04T07:15:04.528Z,1212
2018-04-04T07:16:13.363Z,1216
2018-04-04T07:17:22.197Z,1224
2018-04-04T07:18:31.032Z,1228
2018-04-04T07:19:39.982Z,1236
2018-04-04T07:20:48.799Z,1252
2018-04-04T07:21:57.637Z,1268
2018-04-04T07:23:06.472Z,1284
2018-04-04T07:24:15.307Z,1308
2018-04-04T07:25:24.190Z,1348
2018-04-04T07:26:33.024Z,1408
2018-04-04T07:27:41.863Z,1484
2018-04-04T07:28:50.974Z,1596
2018-04-04T07:29:59.810Z,1756
2018-04-04T07:31:08.794Z,1956
2018-04-04T07:32:17.626Z,2180
2018-04-04T07:33:26.460Z,2404
2018-04-04T07:34:35.568Z,2452
2018-04-04T07:35:44.403Z,2336
2018-04-04T07:36:53.537Z,2348
2018-04-04T07:38:02.370Z,2328
2018-04-04T07:39:11.207Z,2124
2018-04-04T07:40:20.039Z,1816
2018-04-04T07:41:28.873Z,1816
2018-04-04T07:42:38.010Z,1768
2018-04-04T07:43:46.843Z,1772
2018-04-04T07:44:55.678Z,1716
2018-04-04T07:46:04.791Z,1752
2018-04-04T07:47:13.627Z,1788
2018-04-04T07:48:22.462Z,1784
2018-04-04T07:49:31.299Z,1800
2018-04-04T07:50:40.135Z,1832
2018-04-04T07:51:48.971Z,1900
2018-04-04T07:52:58.080Z,1968
2018-04-04T07:54:06.965Z,2048
2018-04-04T07:55:15.802Z,2224
2018-04-04T07:56:24.642Z,2388
2018-04-04T07:57:33.470Z,2392
2018-04-04T07:58:42.307Z,2468
2018-04-04T07:59:51.196Z,2600
2018-04-04T08:01:00.031Z,2764
2018-04-04T08:02:09.138Z,2648
2018-04-04T08:03:17.975Z,2484
2018-04-04T08:04:26.811Z,2336
2018-04-04T08:05:35.806Z,2264
2018-04-04T08:06:44.917Z,2200
2018-04-04T08:07:53.752Z,2180
2018-04-04T08:09:03.156Z,2232
2018-04-04T08:10:11.986Z,2304
2018-04-04T08:11:20.832Z,2296
2018-04-04T08:12:29.943Z,2024
2018-04-04T08:13:38.781Z,2012
2018-04-04T08:14:47.615Z,2104
2018-04-04T08:15:57.011Z,2156
2018-04-04T08:17:06.000Z,2212
2018-04-04T08:18:14.839Z,2288
2018-04-04T08:19:23.673Z,2292
2018-04-04T08:20:32.509Z,2292
2018-04-04T08:21:41.907Z,2336
2018-04-04T08:22:50.893Z,2348
2018-04-04T08:24:00.061Z,2416
2018-04-04T08:25:08.895Z,2456
2018-04-04T08:26:18.010Z,2308
2018-04-04T08:27:26.841Z,2452
2018-04-04T08:28:35.779Z,2648
2018-04-04T08:29:44.616Z,2868
2018-04-04T08:30:53.452Z,3020
2018-04-04T08:32:02.287Z,3304
2018-04-04T08:33:11.136Z,3548
2018-04-04T08:34:20.002Z,3808
2018-04-04T08:35:28.808Z,4008
2018-04-04T08:36:37.647Z,4104
2018-04-04T08:37:47.035Z,4348
2018-04-04T08:38:55.869Z,4596
2018-04-04T08:40:04.858Z,4928
2018-04-04T08:41:13.692Z,5148
2018-04-04T08:42:22.536Z,5184
2018-04-04T08:43:31.367Z,5296
2018-04-04T08:44:40.211Z,5616
2018-04-04T08:45:49.154Z,5712
2018-04-04T08:46:57.989Z,5648
2018-04-04T08:48:06.832Z,5404
2018-04-04T08:49:15.669Z,5360
2018-04-04T08:50:25.061Z,5656
2018-04-04T08:51:34.051Z,5992
2018-04-04T08:52:42.891Z,6324
2018-04-04T08:53:51.730Z,6732
2018-04-04T08:55:00.569Z,7084
2018-04-04T08:56:09.406Z,7280
2018-04-04T08:57:18.292Z,7268
2018-04-04T08:58:27.408Z,7236
2018-04-04T08:59:36.244Z,7148
2018-04-04T09:00:45.092Z,7120
2018-04-04T09:01:53.923Z,7096
2018-04-04T09:03:02.912Z,7028
2018-04-04T09:04:11.751Z,6936
2018-04-04T09:05:20.589Z,6860
2018-04-04T09:06:29.429Z,6908
2018-04-04T09:07:38.267Z,6828
2018-04-04T09:08:47.155Z,6668
2018-04-04T09:09:55.994Z,6628
2018-04-04T09:11:04.833Z,6756
2018-04-04T09:12:13.949Z,6820
2018-04-04T09:13:22.786Z,6892
2018-04-04T09:14:31.728Z,7144
2018-04-04T09:15:40.515Z,7356
2018-04-04T09:16:49.354Z,7472
2018-04-04T09:17:58.543Z,7652
2018-04-04T09:19:07.381Z,7896
2018-04-04T09:20:16.368Z,8140
2018-04-04T09:21:25.206Z,8136
2018-04-04T09:22:34.045Z,7748
2018-04-04T09:23:42.882Z,7492
2018-04-04T09:24:51.719Z,7408
2018-04-04T09:26:00.807Z,7204
2018-04-04T09:27:09.648Z,7040
2018-04-04T09:28:18.485Z,6960
2018-04-04T09:29:27.324Z,6932
2018-04-04T09:30:36.443Z,6968
2018-04-04T09:31:45.683Z,7052
2018-04-04T09:32:54.521Z,7112
2018-04-04T09:34:03.359Z,7172
2018-04-04T09:35:12.202Z,7188
2018-04-04T09:36:21.038Z,7228
2018-04-04T09:37:29.976Z,7320
2018-04-04T09:38:38.813Z,7436
2018-04-04T09:39:47.652Z,7600
2018-04-04T09:40:56.525Z,7700
2018-04-04T09:42:05.669Z,7844
2018-04-04T09:43:14.710Z,8032
2018-04-04T09:44:23.549Z,8200
2018-04-04T09:45:32.389Z,8268
2018-04-04T09:46:41.229Z,8224
2018-04-04T09:47:50.346Z,8152
2018-04-04T09:48:59.335Z,8104
2018-04-04T09:50:08.174Z,8148
2018-04-04T09:51:17.012Z,8164
2018-04-04T09:52:26.131Z,8136
2018-04-04T09:53:34.973Z,8112
2018-04-04T09:54:44.136Z,8180
2018-04-04T09:55:52.972Z,8236
2018-04-04T09:57:01.812Z,8204
2018-04-04T09:58:10.925Z,8112
2018-04-04T09:59:19.763Z,8148
2018-04-04T10:00:28.707Z,8288
2018-04-04T10:01:37.547Z,8408
2018-04-04T10:02:46.387Z,8480
2018-04-04T10:03:55.228Z,8480
2018-04-04T10:05:04.068Z,8444
2018-04-04T10:06:13.309Z,8364
2018-04-04T10:07:22.146Z,8208
2018-04-04T10:08:30.987Z,8080
2018-04-04T10:09:39.832Z,8044
2018-04-04T10:10:48.671Z,8032
2018-04-04T10:11:57.932Z,7932
2018-04-04T10:13:06.776Z,7744
2018-04-04T10:14:15.888Z,7624
2018-04-04T10:15:24.735Z,7472
2018-04-04T10:16:33.567Z,7320
2018-04-04T10:17:42.605Z,7248
2018-04-04T10:18:51.721Z,7168
2018-04-04T10:20:00.563Z,6948
2018-04-04T10:21:09.401Z,6732
2018-04-04T10:22:18.246Z,6580
2018-04-04T10:23:27.184Z,6532
2018-04-04T10:24:36.022Z,6424
2018-04-04T10:25:44.862Z,6760
2018-04-04T10:26:53.975Z,7132
2018-04-04T10:28:02.816Z,7556
2018-04-04T10:29:11.959Z,8000
2018-04-04T10:30:20.798Z,8280
2018-04-04T10:31:29.639Z,8452
2018-04-04T10:32:38.478Z,8508
2018-04-04T10:33:47.600Z,8468
2018-04-04T10:34:56.691Z,8400
2018-04-04T10:36:05.535Z,8308
2018-04-04T10:37:14.651Z,8132
2018-04-04T10:38:23.492Z,7928
2018-04-04T10:39:32.334Z,8028
2018-04-04T10:40:41.326Z,7976
2018-04-04T10:41:50.441Z,7956
2018-04-04T10:42:59.284Z,8464
2018-04-04T10:44:08.126Z,8848
2018-04-04T10:45:16.969Z,8912
2018-04-04T10:46:25.809Z,8604
2018-04-04T10:47:34.647Z,8180
2018-04-04T10:48:43.491Z,7808
2018-04-04T10:49:52.354Z,7704
2018-04-04T10:51:01.211Z,7888
2018-04-04T10:52:10.211Z,8072
2018-04-04T10:53:19.318Z,8152
2018-04-04T10:54:28.721Z,8248
2018-04-04T10:55:37.560Z,8572
2018-04-04T10:56:46.399Z,8756
2018-04-04T10:57:55.639Z,8684
2018-04-04T10:59:04.481Z,8652
2018-04-04T11:00:13.323Z,8860
2018-04-04T11:01:22.204Z,9268
2018-04-04T11:02:31.376Z,9012
2018-04-04T11:03:40.406Z,8784
2018-04-04T11:04:49.579Z,8208
2018-04-04T11:05:58.728Z,6416
2018-04-04T11:07:07.926Z,5072
2018-04-04T11:08:17.278Z,4692
2018-04-04T11:09:26.546Z,4180
2018-04-04T11:10:35.664Z,4060
2018-04-04T11:11:44.753Z,4084
2018-04-04T11:12:53.626Z,4460
2018-04-04T11:14:03.534Z,6192
2018-04-04T11:15:12.721Z,5348
2018-04-04T11:16:37.418Z,4888
2018-04-04T11:17:46.540Z,6124
2018-04-04T11:18:55.946Z,6020
2018-04-04T11:20:05.786Z,6080
2018-04-04T11:21:14.732Z,7960
2018-04-04T11:22:24.648Z,8008
2018-04-04T11:23:33.555Z,8012
2018-04-04T11:24:42.768Z,9056
2018-04-04T11:26:21.646Z,9376
2018-04-04T11:27:31.029Z,8892
2018-04-04T11:28:40.086Z,8964
2018-04-04T11:29:49.209Z,8712
2018-04-04T11:30:58.725Z,9020
2018-04-04T11:32:07.860Z,8764
2018-04-04T11:33:17.433Z,7924
2018-04-04T11:34:26.816Z,8136
2018-04-04T11:35:36.112Z,8384
2018-04-04T11:36:45.736Z,8652
2018-04-04T11:37:54.896Z,8264
2018-04-04T11:39:03.756Z,7284
2018-04-04T11:40:13.416Z,6012
2018-04-04T11:41:22.305Z,5276
2018-04-04T11:42:31.316Z,4884
2018-04-04T11:43:40.243Z,4280
2018-04-04T11:44:49.714Z,3620
2018-04-04T11:45:59.112Z,3144
2018-04-04T11:48:10.130Z,3292
2018-04-04T11:49:19.067Z,3292
2018-04-04T11:50:27.922Z,3040
2018-04-04T11:51:37.011Z,3024
2018-04-04T11:52:45.844Z,3128
2018-04-04T11:53:54.784Z,2992
2018-04-04T11:55:03.625Z,2620
2018-04-04T11:56:12.466Z,2364
2018-04-04T11:57:21.307Z,2244
2018-04-04T11:58:30.520Z,2128
2018-04-04T11:59:39.526Z,2152
2018-04-04T12:00:48.375Z,2260
2018-04-04T12:01:57.214Z,2244
2018-04-04T12:03:06.053Z,2152
2018-04-04T12:04:14.893Z,1988
2018-04-04T12:05:23.831Z,1828
2018-04-04T12:06:32.676Z,1792
2018-04-04T12:07:41.513Z,1848
2018-04-04T12:08:50.631Z,1824
2018-04-04T12:09:59.468Z,1788
2018-04-04T12:11:08.687Z,1736
2018-04-04T12:12:17.801Z,1784
2018-04-04T12:13:26.641Z,2048
2018-04-04T12:14:35.479Z,2344
2018-04-04T12:15:44.317Z,2616
2018-04-04T12:16:53.265Z,2952
2018-04-04T12:18:02.558Z,3312
2018-04-04T12:19:11.676Z,3696
2018-04-04T12:20:20.515Z,4052
2018-04-04T12:21:29.352Z,4408
2018-04-04T12:22:38.442Z,4956
2018-04-04T12:23:47.566Z,6308
2018-04-04T12:24:56.404Z,7724
2018-04-04T12:26:05.525Z,7316
2018-04-04T12:27:14.365Z,5916
2018-04-04T12:28:23.203Z,4536
2018-04-04T12:29:32.044Z,3356
2018-04-04T12:30:40.884Z,2812
2018-04-04T12:31:50.005Z,2540
2018-04-04T12:32:58.849Z,2484
2018-04-04T12:34:07.954Z,2664
2018-04-04T12:35:16.792Z,3092
2018-04-04T12:36:25.633Z,3576
2018-04-04T12:37:34.468Z,4108
2018-04-04T12:38:43.307Z,4788
2018-04-04T12:39:52.396Z,5188
2018-04-04T12:41:01.237Z,5172
2018-04-04T12:42:10.077Z,4728
2018-04-04T12:43:19.195Z,4692
2018-04-04T12:44:28.588Z,5212
2018-04-04T12:45:37.575Z,6876
2018-04-04T12:46:46.412Z,8676
2018-04-04T12:47:55.251Z,9080
2018-04-04T12:49:04.090Z,8860
2018-04-04T12:50:12.927Z,8252
2018-04-04T12:51:22.064Z,7816
2018-04-04T12:52:30.905Z,7788
2018-04-04T12:53:39.745Z,7568
2018-04-04T12:54:48.584Z,7672
2018-04-04T12:55:57.426Z,7744
2018-04-04T12:57:06.640Z,7836
2018-04-04T12:58:15.480Z,7616
2018-04-04T12:59:24.601Z,7512
2018-04-04T13:00:33.439Z,7600
2018-04-04T13:01:42.279Z,8760
2018-04-04T13:02:51.222Z,10684
2018-04-04T13:04:00.068Z,10384
2018-04-04T13:05:08.916Z,10640
2018-04-04T13:06:17.760Z,10228
2018-04-04T13:07:26.599Z,9132
2018-04-04T13:08:35.589Z,8468
2018-04-04T13:09:44.711Z,8060
2018-04-04T13:10:53.551Z,8028
2018-04-04T13:12:02.393Z,7920
2018-04-04T13:13:11.235Z,8616
2018-04-04T13:14:20.174Z,11148
2018-04-04T13:15:29.015Z,11288
2018-04-04T13:16:37.860Z,11072
2018-04-04T13:17:46.702Z,11052
2018-04-04T13:18:55.539Z,10772
2018-04-04T13:20:04.682Z,11988
2018-04-04T13:21:13.522Z,11160
2018-04-04T13:22:22.365Z,10208
2018-04-04T13:23:31.200Z,9568
2018-04-04T13:24:40.041Z,9400
2018-04-04T13:25:49.133Z,8440
2018-04-04T13:26:57.970Z,6708
2018-04-04T13:28:06.810Z,5360
2018-04-04T13:29:15.651Z,4648
2018-04-04T13:30:24.489Z,4216
2018-04-04T13:31:33.380Z,3900
2018-04-04T13:32:42.219Z,3832
2018-04-04T13:33:51.060Z,3956
2018-04-04T13:34:59.903Z,4032
2018-04-04T13:36:08.741Z,4140
2018-04-04T13:37:17.786Z,4264
2018-04-04T13:38:26.624Z,4348
2018-04-04T13:39:35.468Z,4436
2018-04-04T13:40:44.308Z,4468
2018-04-04T13:41:53.426Z,4508
2018-04-04T13:43:02.416Z,4700
2018-04-04T13:44:11.257Z,5184
2018-04-04T13:45:20.097Z,5652
2018-04-04T13:46:28.938Z,5936
2018-04-04T13:47:37.779Z,6432
2018-04-04T13:48:46.890Z,6772
2018-04-04T13:49:55.729Z,7088
2018-04-04T13:51:04.571Z,6796
2018-04-04T13:52:13.408Z,6632
2018-04-04T13:53:22.249Z,6416
2018-04-04T13:54:31.364Z,6144
2018-04-04T13:55:40.204Z,5896
2018-04-04T13:56:49.045Z,5716
2018-04-04T13:57:57.883Z,5624
2018-04-04T13:59:06.722Z,5556
2018-04-04T14:00:15.565Z,5432
2018-04-04T14:01:24.404Z,5348
2018-04-04T14:02:33.243Z,5340
2018-04-04T14:03:42.139Z,5516
2018-04-04T14:04:50.922Z,5652
2018-04-04T14:06:00.062Z,5748
2018-04-04T14:07:08.905Z,5696
2018-04-04T14:08:17.745Z,5536
2018-04-04T14:09:26.584Z,5380
2018-04-04T14:10:35.421Z,5240
2018-04-04T14:11:44.414Z,5056
2018-04-04T14:12:53.253Z,4828
2018-04-04T14:14:02.093Z,4556
2018-04-04T14:15:10.939Z,4332
2018-04-04T14:16:19.776Z,4208
2018-04-04T14:17:28.665Z,4180
2018-04-04T14:18:37.506Z,4252
2018-04-04T14:19:46.346Z,4432
2018-04-04T14:20:55.466Z,4660
2018-04-04T14:22:04.303Z,4872
2018-04-04T14:23:13.144Z,5096
2018-04-04T14:24:22.263Z,5452
2018-04-04T14:25:31.101Z,5908
2018-04-04T14:26:40.560Z,6168
2018-04-04T14:27:49.401Z,5884
2018-04-04T14:28:58.321Z,5716
2018-04-04T14:30:07.447Z,5484
2018-04-04T14:31:16.557Z,5304
2018-04-04T14:32:25.468Z,5196
2018-04-04T14:33:34.924Z,5180
2018-04-04T14:34:43.765Z,5284
2018-04-04T14:35:52.605Z,5500
2018-04-04T14:37:01.445Z,5740
2018-04-04T14:38:10.284Z,5940
2018-04-04T14:39:19.129Z,6168
2018-04-04T14:40:27.972Z,6512
2018-04-04T14:41:36.812Z,6900
2018-04-04T14:42:45.649Z,6976
2018-04-04T14:43:54.488Z,6736
2018-04-04T14:45:03.331Z,6388
2018-04-04T14:46:12.227Z,6220
2018-04-04T14:47:21.060Z,5616
2018-04-04T14:48:29.910Z,4980
2018-04-04T14:49:38.751Z,4548
2018-04-04T14:50:47.592Z,4184
2018-04-04T14:51:56.431Z,3924
2018-04-04T14:53:05.271Z,3764
2018-04-04T14:54:14.113Z,3720
2018-04-04T14:55:23.052Z,3788
2018-04-04T14:56:31.892Z,3844
2018-04-04T14:57:40.795Z,3760
2018-04-04T14:58:49.872Z,3560
2018-04-04T14:59:58.816Z,3388
2018-04-04T15:01:07.928Z,3312
2018-04-04T15:02:16.769Z,3304
2018-04-04T15:03:25.608Z,3328
2018-04-04T15:04:34.448Z,3328
2018-04-04T15:05:43.486Z,3260
2018-04-04T15:06:52.601Z,3124
2018-04-04T15:08:01.440Z,2964
2018-04-04T15:09:10.281Z,2848
2018-04-04T15:10:19.116Z,2788
2018-04-04T15:11:27.956Z,2776
2018-04-04T15:12:36.798Z,2792
2018-04-04T15:13:45.685Z,2884
2018-04-04T15:14:54.526Z,3064
2018-04-04T15:16:03.412Z,3248
2018-04-04T15:17:12.256Z,3288
2018-04-04T15:18:21.097Z,3144
2018-04-04T15:19:29.945Z,2936
2018-04-04T15:20:38.782Z,2756
2018-04-04T15:21:47.622Z,2632
2018-04-04T15:22:56.466Z,2620
2018-04-04T15:24:05.302Z,2660
2018-04-04T15:25:14.139Z,2712
2018-04-04T15:26:23.180Z,2676
2018-04-04T15:27:32.296Z,2512
2018-04-04T15:28:41.146Z,2352
2018-04-04T15:29:49.974Z,2212
2018-04-04T15:30:58.811Z,2084
2018-04-04T15:32:07.651Z,1916
2018-04-04T15:33:16.491Z,1752
2018-04-04T15:34:25.609Z,1668
2018-04-04T15:35:34.450Z,1680
2018-04-04T15:36:43.289Z,1716
2018-04-04T15:37:52.128Z,1736
2018-04-04T15:39:00.965Z,1772
2018-04-04T15:40:09.803Z,1840
2018-04-04T15:41:18.648Z,1956
2018-04-04T15:42:27.536Z,2040
2018-04-04T15:43:36.375Z,2040
2018-04-04T15:44:45.213Z,1928
2018-04-04T15:45:54.059Z,1760
2018-04-04T15:47:03.171Z,1652
2018-04-04T15:48:12.383Z,1604
2018-04-04T15:49:21.223Z,1612
2018-04-04T15:50:30.061Z,1704